Time;durP1;ratioP1;P1;durP2;ratioP2;P2;SDS_P1;SDS_P2;PMS_P1;PMS_P2;Temp;Humidity;BMP_temperature;BMP_pressure;BME280_temperature;BME280_humidity;BME280_pressure;Samples;Min_cycle;Max_cycle;Signal;HPM_P1;HPM_P2
2021/12/15 00:00:47;;;;;;;100.00;26.80;;;10.90;99.90;;;;;;5076045;28;20548;-73
2021/12/15 00:03:15;;;;;;;99.18;28.10;;;10.90;99.90;;;;;;5088752;28;20127;-73
2021/12/15 00:05:42;;;;;;;96.70;27.58;;;10.90;99.90;;;;;;5086437;28;20097;-73
2021/12/15 00:08:11;;;;;;;94.38;28.20;;;10.90;99.90;;;;;;5086250;28;20042;-73
2021/12/15 00:10:42;;;;;;;89.53;26.55;;;10.90;99.90;;;;;;5089279;28;20130;-74
2021/12/15 00:13:10;;;;;;;108.88;28.85;;;10.90;99.90;;;;;;5084403;28;20236;-73
2021/12/15 00:15:36;;;;;;;84.25;24.25;;;10.90;99.90;;;;;;5113820;27;20034;-74
2021/12/15 00:18:03;;;;;;;84.45;28.08;;;10.90;99.90;;;;;;5081323;28;21346;-73
2021/12/15 00:20:29;;;;;;;95.97;26.17;;;10.90;99.90;;;;;;5066794;28;20079;-72
2021/12/15 00:22:55;;;;;;;88.75;25.52;;;10.90;99.90;;;;;;5088471;28;20075;-74
2021/12/15 00:25:24;;;;;;;90.72;26.63;;;10.40;99.90;;;;;;5091712;28;20048;-74
2021/12/15 00:27:51;;;;;;;100.13;28.17;;;11.00;99.90;;;;;;5090363;28;20093;-74
2021/12/15 00:30:17;;;;;;;89.25;29.42;;;10.90;99.90;;;;;;5086024;28;20139;-73
2021/12/15 00:32:43;;;;;;;79.45;26.25;;;10.90;99.90;;;;;;5074243;28;20043;-73
2021/12/15 00:35:09;;;;;;;84.65;26.48;;;11.00;99.90;;;;;;5092225;28;20062;-73
2021/12/15 00:37:35;;;;;;;84.05;26.08;;;11.00;99.90;;;;;;5088499;28;20075;-73
2021/12/15 00:40:03;;;;;;;86.13;28.13;;;10.90;99.90;;;;;;5082278;28;20076;-74
2021/12/15 00:42:29;;;;;;;75.03;26.63;;;11.00;99.90;;;;;;5072411;28;20123;-74
2021/12/15 00:44:55;;;;;;;69.10;24.75;;;11.00;99.90;;;;;;5069492;28;20131;-73
2021/12/15 00:47:21;;;;;;;74.63;23.27;;;11.00;99.90;;;;;;5069791;28;20123;-73
2021/12/15 00:49:46;;;;;;;83.55;26.73;;;11.00;99.90;;;;;;5067339;28;20059;-73
2021/12/15 00:52:13;;;;;;;70.40;23.00;;;11.00;99.90;;;;;;5088350;28;20056;-74
2021/12/15 00:54:39;;;;;;;79.18;27.00;;;11.10;99.90;;;;;;5084670;28;20048;-73
2021/12/15 00:57:05;;;;;;;72.30;24.25;;;11.10;99.90;;;;;;5085434;28;20493;-73
2021/12/15 00:59:31;;;;;;;85.88;26.83;;;11.00;99.90;;;;;;5088475;28;20049;-74
2021/12/15 01:01:57;;;;;;;66.90;23.70;;;11.00;99.90;;;;;;5075617;28;20048;-73
2021/12/15 01:04:24;;;;;;;74.57;24.63;;;11.00;99.90;;;;;;5091781;28;20078;-74
2021/12/15 01:06:54;;;;;;;64.72;24.33;;;11.00;99.90;;;;;;5088395;28;20072;-73
2021/12/15 01:09:41;;;;;;;69.75;23.85;;;11.00;99.90;;;;;;5089411;28;20509;-74
2021/12/15 01:12:40;;;;;;;75.25;25.52;;;11.00;99.90;;;;;;5086042;28;20048;-74
2021/12/15 01:20:42;;;;;;;74.03;27.13;;;11.00;99.90;;;;;;5086209;28;20443;-73
2021/12/15 01:23:13;;;;;;;69.80;19.83;;;11.00;99.90;;;;;;5086746;28;20063;-73
2021/12/15 01:25:58;;;;;;;65.47;23.45;;;11.00;99.90;;;;;;5079925;28;20036;-73
2021/12/15 01:28:24;;;;;;;61.55;21.75;;;11.10;99.90;;;;;;5092542;28;20040;-73
2021/12/15 01:30:52;;;;;;;66.05;21.88;;;11.10;99.90;;;;;;5091215;28;20035;-73
2021/12/15 01:33:17;;;;;;;64.55;22.80;;;11.00;99.90;;;;;;5086058;28;20079;-72
2021/12/15 01:35:47;;;;;;;72.25;25.45;;;11.10;99.90;;;;;;5090116;28;20439;-72
2021/12/15 01:38:15;;;;;;;60.10;21.27;;;11.00;99.90;;;;;;5084657;28;20051;-73
2021/12/15 01:40:44;;;;;;;62.45;25.30;;;11.00;99.90;;;;;;5090763;28;20056;-72
2021/12/15 01:43:20;;;;;;;75.07;26.13;;;11.00;99.90;;;;;;5117485;27;20097;-72
2021/12/15 01:48:36;;;;;;;62.40;24.05;;;11.00;99.90;;;;;;5089677;28;20048;-73
2021/12/15 01:51:04;;;;;;;65.72;24.65;;;11.00;99.90;;;;;;5091320;28;20123;-73
2021/12/15 01:53:30;;;;;;;68.22;23.98;;;11.00;99.90;;;;;;5089577;28;20338;-72
2021/12/15 01:55:56;;;;;;;69.40;23.40;;;11.00;99.90;;;;;;5072373;28;20044;-73
2021/12/15 01:58:22;;;;;;;63.65;23.60;;;11.00;99.90;;;;;;5070153;28;20059;-73
2021/12/15 02:00:55;;;;;;;71.82;26.55;;;11.10;99.90;;;;;;5076969;28;20051;-73
2021/12/15 02:03:21;;;;;;;71.90;26.30;;;11.10;99.90;;;;;;5095543;28;20127;-73
2021/12/15 02:05:48;;;;;;;65.78;24.15;;;11.10;99.90;;;;;;5090650;28;20120;-72
2021/12/15 02:08:14;;;;;;;70.57;24.40;;;11.10;99.90;;;;;;5076780;28;20058;-73
2021/12/15 02:10:42;;;;;;;68.57;25.83;;;11.00;99.90;;;;;;5089357;28;20074;-73
2021/12/15 02:13:11;;;;;;;70.20;25.15;;;11.10;99.90;;;;;;5092662;28;20048;-73
2021/12/15 02:15:40;;;;;;;63.97;22.98;;;11.10;99.90;;;;;;5074033;28;20130;-74
2021/12/15 02:18:09;;;;;;;68.85;25.23;;;11.10;99.90;;;;;;5088434;28;20504;-73
2021/12/15 02:20:37;;;;;;;64.75;23.35;;;11.10;99.90;;;;;;5087020;28;20063;-73
2021/12/15 02:23:04;;;;;;;71.60;24.85;;;11.10;99.90;;;;;;5089933;28;20571;-73
2021/12/15 02:25:31;;;;;;;70.45;25.40;;;11.10;99.90;;;;;;5089527;28;20467;-73
2021/12/15 02:27:58;;;;;;;63.15;21.80;;;11.10;99.90;;;;;;5084588;28;20171;-73
2021/12/15 02:30:45;;;;;;;72.57;25.67;;;11.10;99.90;;;;;;5105481;27;20523;-74
2021/12/15 02:38:40;;;;;;;66.22;23.90;;;11.10;99.90;;;;;;5087142;28;20056;-73
2021/12/15 02:41:12;;;;;;;68.65;23.80;;;11.10;99.90;;;;;;5066295;28;20052;-74
2021/12/15 02:43:39;;;;;;;67.97;25.42;;;11.10;99.90;;;;;;5093599;28;20315;-73
2021/12/15 02:46:06;;;;;;;72.85;26.10;;;11.10;99.90;;;;;;5092562;28;20126;-74
2021/12/15 02:48:33;;;;;;;64.90;22.90;;;11.10;99.90;;;;;;5070066;28;20047;-73
2021/12/15 02:51:00;;;;;;;74.43;25.70;;;11.10;99.90;;;;;;5095424;28;20043;-73
2021/12/15 02:53:26;;;;;;;66.63;22.38;;;11.10;99.90;;;;;;5089412;28;20131;-73
2021/12/15 02:55:52;;;;;;;60.15;21.40;;;11.10;99.90;;;;;;5091397;28;20400;-74
2021/12/15 02:58:20;;;;;;;63.17;20.65;;;11.10;99.90;;;;;;5118119;27;20059;-73
2021/12/15 03:00:58;;;;;;;66.00;25.90;;;11.20;99.90;;;;;;5091505;28;20047;-73
2021/12/15 03:06:08;;;;;;;54.45;17.83;;;11.20;99.90;;;;;;5086246;28;20052;-74
2021/12/15 03:15:18;;;;;;;66.40;24.42;;;11.20;99.90;;;;;;5087393;28;20040;-73
2021/12/15 03:16:56;;;;;;;68.18;23.08;;;11.20;99.90;;;;;;5087462;28;20131;-73
2021/12/15 03:19:22;;;;;;;65.75;24.40;;;11.10;99.90;;;;;;5080275;28;20052;-73
2021/12/15 03:21:48;;;;;;;66.68;25.33;;;11.20;99.90;;;;;;5092979;28;20504;-73
2021/12/15 03:24:19;;;;;;;72.63;25.95;;;11.20;99.90;;;;;;5087620;28;20157;-73
2021/12/15 03:26:54;;;;;;;64.68;24.08;;;11.30;99.90;;;;;;5088077;28;20047;-73
2021/12/15 03:37:28;;;;;;;68.65;26.33;;;11.20;99.90;;;;;;5093982;28;20488;-73
2021/12/15 03:40:15;;;;;;;68.72;24.30;;;11.20;99.90;;;;;;5093153;28;20515;-73
2021/12/15 03:42:52;;;;;;;76.25;25.80;;;11.20;99.90;;;;;;5111363;27;20039;-73
2021/12/15 03:45:29;;;;;;;74.53;26.83;;;11.20;99.90;;;;;;5110505;27;20436;-73
2021/12/15 03:47:58;;;;;;;70.40;24.33;;;11.20;99.90;;;;;;5088910;28;20420;-72
2021/12/15 03:50:25;;;;;;;66.63;25.08;;;11.20;99.90;;;;;;5088977;28;20105;-73
2021/12/15 03:52:52;;;;;;;61.75;22.25;;;11.20;99.90;;;;;;5083492;28;20044;-73
2021/12/15 03:55:22;;;;;;;72.85;25.67;;;11.20;99.90;;;;;;5072601;28;20104;-73
2021/12/15 03:57:48;;;;;;;70.70;25.75;;;11.20;99.90;;;;;;5090625;28;20101;-73
2021/12/15 04:00:17;;;;;;;72.90;25.73;;;11.20;99.90;;;;;;5090382;28;20086;-73
2021/12/15 04:02:44;;;;;;;77.43;29.15;;;11.20;99.90;;;;;;5082799;28;20048;-73
2021/12/15 04:05:12;;;;;;;73.70;25.23;;;11.20;99.90;;;;;;5075310;28;20044;-72
2021/12/15 04:07:38;;;;;;;77.30;27.38;;;11.20;99.90;;;;;;5072355;28;20044;-73
2021/12/15 04:10:08;;;;;;;81.78;26.88;;;11.10;99.90;;;;;;5072147;28;20047;-73
2021/12/15 04:12:33;;;;;;;72.38;24.75;;;11.10;99.90;;;;;;5090172;28;20597;-73
2021/12/15 04:18:04;;;;;;;68.20;22.33;;;11.20;99.90;;;;;;5034360;28;20585;-73
2021/12/15 04:20:32;;;;;;;83.32;29.10;;;11.20;99.90;;;;;;5027900;28;20049;-73
2021/12/15 04:22:58;;;;;;;74.82;26.50;;;11.20;99.90;;;;;;5056568;28;20071;-73
2021/12/15 04:25:34;;;;;;;83.65;28.27;;;11.20;99.90;;;;;;5088201;28;20114;-73
2021/12/15 04:28:20;;;;;;;79.07;25.73;;;11.20;99.90;;;;;;5068702;28;20048;-73
2021/12/15 04:30:53;;;;;;;85.28;29.45;;;11.20;99.90;;;;;;5071226;28;20530;-73
2021/12/15 04:33:27;;;;;;;76.97;26.00;;;11.20;99.90;;;;;;5070031;28;20052;-73
2021/12/15 04:35:55;;;;;;;66.10;20.83;;;11.10;99.90;;;;;;5090511;28;20130;-74
2021/12/15 04:38:24;;;;;;;78.18;26.77;;;11.20;99.90;;;;;;5075059;28;20080;-73
2021/12/15 04:40:50;;;;;;;76.10;28.20;;;11.10;99.90;;;;;;5088863;28;20102;-73
2021/12/15 04:43:17;;;;;;;81.65;27.25;;;11.10;99.90;;;;;;5090730;28;20455;-73
2021/12/15 04:45:43;;;;;;;76.10;26.85;;;11.10;99.90;;;;;;5087525;28;20063;-73
2021/12/15 04:48:10;;;;;;;75.13;25.38;;;11.10;99.90;;;;;;5095005;28;20097;-73
2021/12/15 04:50:37;;;;;;;76.38;25.77;;;11.10;99.90;;;;;;5095023;28;20048;-73
2021/12/15 04:53:05;;;;;;;72.00;26.90;;;11.10;99.90;;;;;;5071373;28;20055;-73
2021/12/15 04:55:33;;;;;;;75.35;26.55;;;11.10;99.90;;;;;;5092124;28;20079;-73
2021/12/15 04:58:01;;;;;;;75.65;26.10;;;11.10;99.90;;;;;;5094517;28;20505;-74
2021/12/15 05:00:31;;;;;;;76.63;26.88;;;11.10;99.90;;;;;;5092139;28;20344;-74
2021/12/15 05:02:58;;;;;;;73.18;24.13;;;11.10;99.90;;;;;;5065163;28;20426;-74
2021/12/15 05:05:26;;;;;;;77.18;25.73;;;11.10;99.90;;;;;;5087121;28;20036;-74
2021/12/15 05:07:52;;;;;;;78.55;28.55;;;11.10;99.90;;;;;;5076030;28;20393;-74
2021/12/15 05:10:20;;;;;;;75.10;25.52;;;11.10;99.90;;;;;;5059595;28;20493;-73
2021/12/15 05:12:46;;;;;;;72.15;25.17;;;11.10;99.90;;;;;;5073267;28;20508;-73
2021/12/15 05:15:13;;;;;;;80.93;27.77;;;11.10;99.90;;;;;;5090226;28;20086;-73
2021/12/15 05:17:38;;;;;;;77.82;26.58;;;11.10;99.90;;;;;;5088984;28;20040;-75
2021/12/15 05:20:08;;;;;;;78.78;27.70;;;11.10;99.90;;;;;;5083267;28;20055;-74
2021/12/15 05:22:34;;;;;;;72.53;24.92;;;11.10;99.90;;;;;;5092557;28;20048;-73
2021/12/15 05:25:00;;;;;;;81.57;27.27;;;11.10;99.90;;;;;;5090886;28;20531;-73
2021/12/15 05:27:26;;;;;;;82.05;28.50;;;11.10;99.90;;;;;;5058863;28;20040;-73
2021/12/15 05:29:53;;;;;;;82.43;27.65;;;11.10;99.90;;;;;;5091512;28;20521;-73
2021/12/15 05:32:21;;;;;;;73.57;25.23;;;11.10;99.90;;;;;;5090646;28;20089;-74
2021/12/15 05:34:50;;;;;;;72.57;26.33;;;11.00;99.90;;;;;;5088691;28;20075;-73
2021/12/15 05:37:18;;;;;;;77.90;25.80;;;11.10;99.90;;;;;;5089746;28;20044;-73
2021/12/15 05:39:45;;;;;;;73.78;24.55;;;11.10;99.90;;;;;;5077333;28;20039;-73
2021/12/15 05:42:11;;;;;;;74.60;27.33;;;11.10;99.90;;;;;;5087704;28;20051;-76
2021/12/15 05:44:37;;;;;;;76.97;27.88;;;11.10;99.90;;;;;;5086239;28;20177;-74
2021/12/15 05:47:04;;;;;;;82.57;30.23;;;11.10;99.90;;;;;;5090682;28;20070;-73
2021/12/15 05:49:30;;;;;;;76.00;27.15;;;11.00;99.90;;;;;;5097147;28;20079;-73
2021/12/15 05:51:56;;;;;;;76.35;26.00;;;11.10;99.90;;;;;;5097764;28;20094;-73
2021/12/15 05:54:22;;;;;;;78.35;29.05;;;11.10;99.90;;;;;;5073280;28;20052;-74
2021/12/15 05:56:48;;;;;;;76.50;27.52;;;11.10;99.90;;;;;;5092837;28;20404;-73
2021/12/15 05:59:14;;;;;;;75.03;27.15;;;11.10;99.90;;;;;;5094520;28;20075;-73
2021/12/15 06:01:40;;;;;;;71.43;25.35;;;11.00;99.90;;;;;;5086114;28;20057;-72
2021/12/15 06:04:06;;;;;;;77.60;27.40;;;11.10;99.90;;;;;;5086982;28;20461;-73
2021/12/15 06:06:33;;;;;;;71.70;25.83;;;11.10;99.90;;;;;;5095397;28;20125;-73
2021/12/15 06:09:00;;;;;;;77.38;27.55;;;11.00;99.90;;;;;;5088825;28;20048;-73
2021/12/15 06:11:26;;;;;;;77.55;26.67;;;11.10;99.90;;;;;;5075275;28;20040;-73
2021/12/15 06:13:53;;;;;;;85.53;29.42;;;11.10;99.90;;;;;;5065890;28;20064;-73
2021/12/15 06:16:21;;;;;;;82.75;28.40;;;11.10;99.90;;;;;;5089583;28;20048;-73
2021/12/15 06:18:48;;;;;;;76.05;28.58;;;11.10;99.90;;;;;;5063067;28;20055;-73
2021/12/15 06:21:15;;;;;;;76.10;28.20;;;11.00;99.90;;;;;;5090406;28;20586;-73
2021/12/15 06:23:41;;;;;;;76.15;27.05;;;11.10;99.90;;;;;;5069563;28;20131;-72
2021/12/15 06:26:08;;;;;;;72.72;28.63;;;11.10;99.90;;;;;;5086845;28;20144;-74
2021/12/15 06:28:35;;;;;;;80.68;26.80;;;11.10;99.90;;;;;;5092195;28;20503;-73
2021/12/15 06:31:03;;;;;;;74.70;28.17;;;11.10;99.90;;;;;;5090705;28;20051;-73
2021/12/15 06:33:29;;;;;;;82.35;29.35;;;11.10;99.90;;;;;;5088281;28;20365;-73
2021/12/15 06:35:58;;;;;;;84.43;29.17;;;11.10;99.90;;;;;;5090520;28;20044;-73
2021/12/15 06:38:28;;;;;;;71.53;27.98;;;11.00;99.90;;;;;;5064611;28;20044;-73
2021/12/15 06:40:54;;;;;;;77.88;26.20;;;11.10;99.90;;;;;;5088190;28;20083;-73
2021/12/15 06:43:21;;;;;;;74.03;25.58;;;11.10;99.90;;;;;;5090098;28;20043;-73
2021/12/15 06:59:30;;;;;;;74.18;28.88;;;11.10;99.90;;;;;;5091697;28;20047;-73
2021/12/15 07:01:56;;;;;;;74.50;24.95;;;11.10;99.90;;;;;;5089125;28;20120;-73
2021/12/15 07:04:23;;;;;;;69.43;24.75;;;11.40;99.90;;;;;;5072903;28;20388;-73
2021/12/15 07:06:50;;;;;;;76.40;29.40;;;11.10;99.90;;;;;;5091326;28;20059;-74
2021/12/15 07:09:17;;;;;;;79.93;29.33;;;11.10;99.90;;;;;;5074250;28;20044;-74
2021/12/15 07:11:43;;;;;;;72.05;25.48;;;11.10;99.90;;;;;;5086392;28;20074;-73
2021/12/15 07:14:09;;;;;;;81.72;29.60;;;11.10;99.90;;;;;;5083098;28;20056;-74
2021/12/15 07:16:39;;;;;;;79.32;27.40;;;11.10;99.90;;;;;;5090672;28;20040;-74
2021/12/15 07:19:32;;;;;;;78.15;29.48;;;11.10;99.90;;;;;;5092247;28;20115;-73
2021/12/15 07:24:33;;;;;;;67.75;25.20;;;11.00;99.90;;;;;;5115311;27;20048;-72
2021/12/15 07:27:00;;;;;;;69.15;25.10;;;11.00;99.90;;;;;;5087249;28;20055;-73
2021/12/15 07:29:28;;;;;;;73.07;27.40;;;11.00;99.90;;;;;;5087792;28;20565;-73
2021/12/15 07:31:54;;;;;;;71.68;27.27;;;11.00;99.90;;;;;;5088443;28;20113;-73
2021/12/15 07:34:20;;;;;;;71.10;25.65;;;11.00;99.90;;;;;;5073700;28;20118;-73
2021/12/15 07:36:46;;;;;;;73.28;27.75;;;11.00;99.90;;;;;;5088808;28;20460;-72
2021/12/15 07:39:12;;;;;;;77.70;27.83;;;11.00;99.90;;;;;;5068137;28;21177;-72
2021/12/15 07:41:48;;;;;;;79.43;29.85;;;11.00;99.90;;;;;;5092185;28;20083;-74
2021/12/15 07:44:15;;;;;;;74.90;26.75;;;11.00;99.90;;;;;;5084832;28;20048;-73
2021/12/15 07:46:42;;;;;;;71.15;25.70;;;11.00;99.90;;;;;;5093718;28;20103;-73
2021/12/15 07:49:08;;;;;;;72.78;26.42;;;11.00;99.90;;;;;;5107280;27;20052;-73
2021/12/15 07:51:34;;;;;;;69.07;26.80;;;11.00;99.90;;;;;;5092647;28;20085;-73
2021/12/15 07:53:59;;;;;;;63.67;23.10;;;11.00;99.90;;;;;;5088146;28;20412;-73
2021/12/15 07:56:26;;;;;;;70.47;27.98;;;11.00;99.90;;;;;;5087725;28;20046;-73
2021/12/15 07:58:51;;;;;;;68.30;25.42;;;11.00;99.90;;;;;;5085405;28;20177;-73
2021/12/15 08:01:19;;;;;;;65.45;26.25;;;11.00;99.90;;;;;;5085234;28;20075;-73
2021/12/15 08:03:50;;;;;;;74.72;27.55;;;11.00;99.90;;;;;;5086882;28;20062;-73
2021/12/15 08:06:16;;;;;;;71.85;26.33;;;11.00;99.90;;;;;;5090694;28;20051;-73
2021/12/15 08:08:42;;;;;;;69.07;27.92;;;11.00;99.90;;;;;;5088824;28;20588;-73
2021/12/15 08:11:08;;;;;;;65.47;24.40;;;11.00;99.90;;;;;;5089641;28;20121;-72
2021/12/15 08:13:36;;;;;;;70.65;25.80;;;11.00;99.90;;;;;;5073801;28;20052;-73
2021/12/15 08:16:03;;;;;;;64.78;23.98;;;11.00;99.90;;;;;;5084464;28;20056;-73
2021/12/15 08:18:29;;;;;;;61.45;25.50;;;11.00;99.90;;;;;;5054070;28;20048;-73
2021/12/15 08:20:55;;;;;;;68.10;25.35;;;11.10;99.90;;;;;;5055385;28;20040;-73
2021/12/15 08:23:22;;;;;;;66.25;26.83;;;11.10;99.90;;;;;;5069224;28;20047;-73
2021/12/15 08:25:48;;;;;;;67.80;27.67;;;11.00;99.90;;;;;;5072310;28;20048;-72
2021/12/15 08:28:14;;;;;;;65.32;27.42;;;11.10;99.90;;;;;;5084825;28;20059;-73
2021/12/15 08:30:43;;;;;;;60.00;21.00;;;11.10;99.90;;;;;;5089071;28;20055;-72
2021/12/15 08:33:16;;;;;;;62.78;25.27;;;11.10;99.90;;;;;;5073039;28;20140;-72
2021/12/15 08:35:49;;;;;;;69.85;26.40;;;11.10;99.90;;;;;;5089528;28;20094;-73
2021/12/15 08:38:17;;;;;;;54.47;22.58;;;11.10;99.90;;;;;;5090674;28;20098;-72
2021/12/15 08:40:44;;;;;;;56.40;22.42;;;11.10;99.90;;;;;;5089600;28;20484;-73
2021/12/15 08:43:11;;;;;;;59.65;24.27;;;11.20;99.90;;;;;;5090246;28;20040;-72
2021/12/15 08:45:39;;;;;;;54.80;22.02;;;11.10;99.90;;;;;;5073526;28;20052;-73
2021/12/15 08:48:08;;;;;;;54.30;22.48;;;11.20;99.90;;;;;;5073939;28;20077;-73
2021/12/15 08:50:37;;;;;;;60.67;23.90;;;11.20;99.90;;;;;;5073617;28;20063;-72
2021/12/15 08:53:05;;;;;;;53.05;20.13;;;11.10;99.90;;;;;;5084188;28;20130;-73
2021/12/15 08:55:31;;;;;;;53.05;20.73;;;11.20;99.90;;;;;;5077969;28;20052;-73
2021/12/15 08:57:59;;;;;;;52.35;21.92;;;11.20;99.90;;;;;;5083955;28;20167;-73
2021/12/15 09:00:26;;;;;;;51.00;20.73;;;11.20;99.90;;;;;;5085252;28;20416;-72
2021/12/15 09:02:54;;;;;;;54.70;21.45;;;11.20;99.90;;;;;;5082918;28;20051;-73
2021/12/15 09:05:22;;;;;;;50.75;17.98;;;11.20;99.90;;;;;;5093624;28;20085;-72
2021/12/15 09:07:54;;;;;;;52.72;20.80;;;11.30;99.90;;;;;;5084446;28;20083;-73
2021/12/15 09:10:22;;;;;;;48.83;21.30;;;11.30;99.90;;;;;;5087620;28;20051;-73
2021/12/15 09:12:48;;;;;;;54.63;20.65;;;11.30;99.90;;;;;;5089507;28;20056;-72
2021/12/15 09:15:15;;;;;;;51.13;18.20;;;11.30;99.90;;;;;;5089097;28;20059;-72
2021/12/15 09:17:40;;;;;;;44.92;19.83;;;11.30;99.90;;;;;;5088552;28;20520;-73
2021/12/15 09:20:15;;;;;;;47.35;22.42;;;11.30;99.90;;;;;;5074620;28;20076;-72
2021/12/15 09:22:41;;;;;;;48.78;19.38;;;11.30;99.90;;;;;;5092809;28;20040;-72
2021/12/15 09:25:09;;;;;;;43.78;19.52;;;11.40;99.90;;;;;;5076260;28;20374;-74
2021/12/15 09:27:36;;;;;;;42.90;18.58;;;11.30;99.90;;;;;;5105404;28;20044;-72
2021/12/15 09:30:05;;;;;;;48.47;19.88;;;11.30;99.90;;;;;;5097599;28;20507;-72
2021/12/15 09:32:31;;;;;;;46.22;20.48;;;11.40;99.90;;;;;;5092314;28;20139;-73
2021/12/15 09:34:57;;;;;;;46.17;19.27;;;11.40;99.90;;;;;;5090564;28;20601;-73
2021/12/15 09:37:23;;;;;;;41.95;18.52;;;11.40;99.90;;;;;;5036393;28;20452;-72
2021/12/15 09:39:50;;;;;;;44.75;19.38;;;11.50;99.90;;;;;;5069716;28;20514;-73
2021/12/15 09:42:23;;;;;;;41.20;17.15;;;11.50;99.90;;;;;;5086974;28;21243;-74
2021/12/15 09:44:52;;;;;;;47.88;20.45;;;11.50;99.90;;;;;;5092449;28;20051;-73
2021/12/15 09:47:39;;;;;;;45.92;20.38;;;11.50;99.90;;;;;;5092896;28;20177;-72
2021/12/15 10:06:47;;;;;;;44.78;19.15;;;11.90;99.90;;;;;;5092499;28;20105;-74
2021/12/15 10:19:56;;;;;;;38.75;17.85;;;11.60;99.90;;;;;;5093051;28;20051;-71
2021/12/15 10:22:40;;;;;;;40.15;18.05;;;11.70;99.90;;;;;;5075789;28;20087;-72
2021/12/15 10:25:06;;;;;;;42.05;16.77;;;11.70;99.90;;;;;;5093001;28;20044;-71
2021/12/15 10:27:48;;;;;;;35.50;16.35;;;11.60;99.90;;;;;;5092106;28;20401;-71
2021/12/15 10:30:34;;;;;;;33.42;16.05;;;11.50;99.90;;;;;;5092120;28;20047;-71
2021/12/15 10:33:20;;;;;;;29.50;15.05;;;11.60;99.90;;;;;;5074895;28;20701;-71
2021/12/15 10:35:53;;;;;;;36.75;14.95;;;11.60;99.90;;;;;;5089911;28;20063;-72
2021/12/15 10:38:29;;;;;;;31.00;15.63;;;11.60;99.90;;;;;;5091402;28;20044;-72
2021/12/15 10:41:08;;;;;;;34.20;13.88;;;11.60;99.90;;;;;;5085243;28;20044;-72
2021/12/15 10:43:45;;;;;;;32.58;14.57;;;11.60;99.90;;;;;;5090746;28;20047;-72
2021/12/15 10:46:36;;;;;;;38.10;15.43;;;11.60;99.90;;;;;;5094866;28;20405;-71
2021/12/15 10:49:07;;;;;;;35.40;15.38;;;11.70;99.90;;;;;;5090674;28;20573;-72
2021/12/15 10:51:48;;;;;;;26.75;12.40;;;11.60;99.90;;;;;;5092189;28;20048;-72
2021/12/15 10:54:22;;;;;;;26.83;12.60;;;11.60;99.90;;;;;;5088498;28;20093;-72
2021/12/15 10:57:11;;;;;;;21.60;10.65;;;11.70;99.90;;;;;;5091252;28;20413;-72
2021/12/15 10:59:45;;;;;;;25.52;12.65;;;11.60;99.90;;;;;;5064482;28;20052;-71
2021/12/15 11:02:13;;;;;;;26.60;13.38;;;11.60;99.90;;;;;;5062970;28;20075;-72
2021/12/15 11:04:41;;;;;;;26.88;11.10;;;11.60;99.90;;;;;;5069273;28;20051;-72
2021/12/15 11:07:23;;;;;;;24.83;12.48;;;11.70;99.90;;;;;;5074346;28;20056;-72
2021/12/15 11:10:01;;;;;;;29.42;12.40;;;11.70;99.90;;;;;;5067994;28;20052;-72
2021/12/15 11:13:05;;;;;;;26.83;11.40;;;11.70;99.90;;;;;;5084783;28;20388;-72
2021/12/15 11:15:41;;;;;;;22.35;11.50;;;11.70;99.90;;;;;;5073842;28;20064;-72
2021/12/15 11:18:16;;;;;;;24.13;11.38;;;11.70;99.90;;;;;;5073703;28;20127;-74
2021/12/15 11:20:50;;;;;;;24.83;12.60;;;11.80;99.90;;;;;;5092878;28;20097;-72
2021/12/15 11:23:18;;;;;;;24.55;11.85;;;11.70;99.90;;;;;;5081116;28;20066;-71
2021/12/15 11:25:54;;;;;;;25.77;12.32;;;11.80;99.90;;;;;;5073993;28;20181;-71
2021/12/15 11:28:33;;;;;;;24.40;12.27;;;11.80;99.90;;;;;;5090505;28;20040;-72
2021/12/15 11:31:04;;;;;;;24.15;12.88;;;11.80;99.90;;;;;;5073348;28;20059;-71
2021/12/15 11:33:38;;;;;;;27.58;12.98;;;11.80;99.90;;;;;;5074416;28;20480;-71
2021/12/15 11:36:34;;;;;;;28.95;13.90;;;11.90;99.90;;;;;;5090763;28;20511;-71
2021/12/15 11:39:30;;;;;;;28.65;12.25;;;11.90;99.90;;;;;;5089743;28;20048;-72
2021/12/15 11:42:02;;;;;;;25.77;11.98;;;11.90;99.90;;;;;;5087022;28;20137;-71
2021/12/15 11:44:28;;;;;;;34.83;14.25;;;11.90;99.90;;;;;;5089133;28;20048;-72
2021/12/15 11:46:58;;;;;;;33.97;13.65;;;11.90;99.90;;;;;;5074310;28;20048;-71
2021/12/15 11:49:29;;;;;;;31.10;13.50;;;11.90;99.90;;;;;;5091659;28;20044;-71
2021/12/15 11:52:11;;;;;;;22.37;10.17;;;11.90;99.90;;;;;;5072709;28;20520;-73
2021/12/15 11:54:47;;;;;;;29.75;13.15;;;11.90;99.90;;;;;;5090827;28;20048;-72
2021/12/15 11:57:25;;;;;;;25.20;12.65;;;12.00;99.90;;;;;;5073996;28;20090;-72
2021/12/15 12:00:10;;;;;;;21.13;11.50;;;12.00;99.90;;;;;;5072819;28;20075;-71
2021/12/15 12:02:41;;;;;;;21.02;10.50;;;12.20;99.90;;;;;;5074039;28;20131;-72
2021/12/15 12:05:16;;;;;;;23.27;10.18;;;12.10;99.90;;;;;;5090832;28;20082;-74
2021/12/15 12:07:59;;;;;;;21.42;9.70;;;12.20;99.90;;;;;;5090700;28;20161;-72
2021/12/15 12:10:48;;;;;;;16.85;8.32;;;12.20;99.90;;;;;;5090213;28;20047;-72
2021/12/15 12:13:20;;;;;;;15.60;6.50;;;12.30;99.90;;;;;;5090391;28;20511;-73
2021/12/15 12:15:49;;;;;;;21.45;8.15;;;12.20;99.90;;;;;;5089817;28;20442;-73
2021/12/15 12:18:19;;;;;;;17.08;8.15;;;12.20;99.90;;;;;;5090008;28;20059;-72
2021/12/15 12:20:49;;;;;;;16.65;8.10;;;12.20;99.90;;;;;;5069447;28;20101;-73
2021/12/15 12:23:19;;;;;;;13.98;7.38;;;12.20;99.90;;;;;;5090553;28;20601;-72
2021/12/15 12:25:48;;;;;;;14.65;7.25;;;12.20;99.90;;;;;;5089966;28;20059;-73
2021/12/15 12:28:18;;;;;;;11.85;6.30;;;12.30;99.90;;;;;;5073750;28;20123;-72
2021/12/15 12:30:51;;;;;;;16.52;7.10;;;12.20;99.90;;;;;;5100925;28;20104;-73
2021/12/15 12:33:19;;;;;;;13.95;6.30;;;12.20;99.90;;;;;;5090339;28;20403;-72
2021/12/15 12:35:53;;;;;;;10.90;5.28;;;12.10;99.90;;;;;;5089891;28;20048;-72
2021/12/15 12:38:26;;;;;;;15.50;5.88;;;12.10;99.90;;;;;;5089978;28;20101;-72
2021/12/15 12:41:01;;;;;;;13.05;5.78;;;12.10;99.90;;;;;;5089721;28;20106;-72
2021/12/15 12:43:36;;;;;;;12.30;6.45;;;12.00;99.90;;;;;;5090055;28;20068;-73
2021/12/15 12:46:28;;;;;;;16.67;6.53;;;12.00;99.90;;;;;;5089822;28;20129;-72
2021/12/15 13:00:58;;;;;;;;;;;12.00;99.90;;;;;;5094466;28;20135;-72
2021/12/15 13:03:30;;;;;;;15.63;6.03;;;11.90;99.90;;;;;;5090675;28;20338;-72
2021/12/15 13:05:56;;;;;;;15.65;5.97;;;11.80;99.90;;;;;;5089016;28;20036;-73
2021/12/15 13:08:40;;;;;;;12.98;5.25;;;11.80;99.90;;;;;;5095465;28;20382;-74
2021/12/15 13:11:18;;;;;;;12.75;5.43;;;11.70;99.90;;;;;;5080269;28;20052;-72
2021/12/15 13:13:58;;;;;;;9.65;4.55;;;12.10;99.90;;;;;;5093639;28;20044;-73
2021/12/15 13:16:29;;;;;;;12.52;4.60;;;12.20;99.90;;;;;;5092835;28;20058;-73
2021/12/15 13:19:10;;;;;;;9.38;4.90;;;12.20;99.90;;;;;;5093688;28;20130;-72
2021/12/15 13:30:40;;;;;;;11.50;4.78;;;12.00;99.90;;;;;;5093232;28;20047;-72
2021/12/15 13:33:14;;;;;;;10.15;4.53;;;12.20;99.90;;;;;;5093350;28;20073;-72
2021/12/15 13:35:48;;;;;;;11.02;4.65;;;12.40;99.90;;;;;;5069518;28;20050;-72
2021/12/15 13:38:20;;;;;;;12.98;4.45;;;12.50;99.90;;;;;;5094719;28;20041;-72
2021/12/15 13:40:53;;;;;;;9.43;4.13;;;12.30;99.90;;;;;;5093945;28;20472;-73
2021/12/15 13:43:53;;;;;;;8.30;4.03;;;12.40;99.90;;;;;;5092525;28;20055;-74
2021/12/15 13:46:45;;;;;;;10.60;3.13;;;12.60;99.90;;;;;;5047042;28;20064;-72
2021/12/15 13:49:19;;;;;;;9.05;3.45;;;12.80;99.90;;;;;;5080865;28;20040;-72
2021/12/15 13:52:09;;;;;;;7.70;3.40;;;13.10;99.90;;;;;;5093353;28;20404;-72
2021/12/15 13:54:35;;;;;;;4.80;2.88;;;13.30;99.90;;;;;;5073047;28;20047;-72
2021/12/15 13:57:23;;;;;;;4.70;2.47;;;13.10;99.90;;;;;;5092497;28;20083;-72
2021/12/15 14:00:02;;;;;;;6.95;2.78;;;12.90;99.90;;;;;;5091429;28;20127;-72
2021/12/15 14:02:53;;;;;;;7.03;2.55;;;13.30;99.90;;;;;;5093058;28;20062;-72
2021/12/15 14:05:29;;;;;;;5.05;2.50;;;13.40;99.90;;;;;;5091959;28;20354;-72
2021/12/15 14:08:13;;;;;;;5.13;2.17;;;13.50;99.90;;;;;;5091149;28;20402;-72
2021/12/15 14:10:44;;;;;;;3.08;2.03;;;13.70;99.90;;;;;;5091593;28;20044;-72
2021/12/15 14:13:10;;;;;;;7.22;2.30;;;13.90;99.90;;;;;;5090539;28;20052;-72
2021/12/15 14:15:36;;;;;;;4.53;2.20;;;13.90;99.90;;;;;;5088340;28;20052;-73
2021/12/15 14:18:17;;;;;;;7.90;2.65;;;13.90;99.90;;;;;;5091819;28;20048;-72
2021/12/15 14:20:51;;;;;;;7.95;2.45;;;14.10;99.90;;;;;;5072977;28;20087;-72
2021/12/15 14:23:44;;;;;;;7.32;2.35;;;14.10;99.90;;;;;;5093658;28;20139;-72